N27JY PKWA-PTSA
Flight info
| Callsign | N27JY |
|---|---|
| Flight time | 1h 2m |
| Altitude | 38000 |
| Route | STEFF LECWI |
| Aircraft | CL60/M-SBDE1E2E3FGHIJ1J4J5J7M3RWXYZ/LB1V1D1 |
Departure
| Time | 2026-04-24 19:39 |
|---|---|
| Airport | Bucholz Army Air Field (PKWA) |
Arrival
| Time | 2026-04-24 20:41 |
|---|---|
| Airport | Kosrae International Airport (PTSA) |
| Time | Latitude | Longitude | Altitude | Speed | Heading |
|---|---|---|---|---|---|
| 2026-04-24 19:33 | 8.72679 | 167.74135 | 26 ft | 0 kts | 307° |
| 2026-04-24 19:34 | 8.72680 | 167.74135 | 26 ft | 1 kts | 307° |
| 2026-04-24 19:34 | 8.72694 | 167.74078 | 26 ft | 15 kts | 290° |
| 2026-04-24 19:35 | 8.72700 | 167.73990 | 27 ft | 12 kts | 224° |
| 2026-04-24 19:35 | 8.72604 | 167.73938 | 26 ft | 19 kts | 205° |
| 2026-04-24 19:35 | 8.72471 | 167.73938 | 25 ft | 17 kts | 162° |
| 2026-04-24 19:35 | 8.72357 | 167.73909 | 23 ft | 20 kts | 245° |
| 2026-04-24 19:36 | 8.72311 | 167.73759 | 22 ft | 24 kts | 253° |
| 2026-04-24 19:36 | 8.72256 | 167.73579 | 20 ft | 28 kts | 252° |
| 2026-04-24 19:36 | 8.72193 | 167.73378 | 18 ft | 32 kts | 253° |
| 2026-04-24 19:36 | 8.72123 | 167.73152 | 17 ft | 34 kts | 250° |
| 2026-04-24 19:37 | 8.72053 | 167.72917 | 20 ft | 36 kts | 254° |
| 2026-04-24 19:37 | 8.71973 | 167.72669 | 20 ft | 38 kts | 252° |
| 2026-04-24 19:37 | 8.71913 | 167.72484 | 21 ft | 26 kts | 252° |
| 2026-04-24 19:37 | 8.71860 | 167.72313 | 20 ft | 13 kts | 242° |
| 2026-04-24 19:38 | 8.71773 | 167.72301 | 20 ft | 15 kts | 130° |
| 2026-04-24 19:38 | 8.71780 | 167.72412 | 20 ft | 19 kts | 76° |
| 2026-04-24 19:38 | 8.71930 | 167.72905 | 20 ft | 127 kts | 72° |
| 2026-04-24 19:38 | 8.72252 | 167.73996 | 92 ft | 186 kts | 73° |
| 2026-04-24 19:39 | 8.72617 | 167.75116 | 1385 ft | 163 kts | 69° |
| 2026-04-24 19:39 | 8.73041 | 167.76219 | 2331 ft | 183 kts | 70° |
| 2026-04-24 19:39 | 8.73460 | 167.77530 | 3127 ft | 214 kts | 72° |
| 2026-04-24 19:39 | 8.73938 | 167.79018 | 4083 ft | 235 kts | 72° |
| 2026-04-24 19:40 | 8.74463 | 167.80611 | 5171 ft | 248 kts | 72° |
| 2026-04-24 19:40 | 8.75010 | 167.82245 | 6337 ft | 255 kts | 71° |
| 2026-04-24 19:40 | 8.75589 | 167.83966 | 7598 ft | 267 kts | 71° |
| 2026-04-24 19:40 | 8.76171 | 167.85733 | 8889 ft | 268 kts | 71° |
| 2026-04-24 19:41 | 8.76755 | 167.87524 | 9866 ft | 277 kts | 70° |
| 2026-04-24 19:41 | 8.77389 | 167.89395 | 10726 ft | 289 kts | 71° |
| 2026-04-24 19:41 | 8.78051 | 167.91441 | 11016 ft | 324 kts | 71° |
| 2026-04-24 19:41 | 8.78777 | 167.93706 | 11621 ft | 343 kts | 72° |
| 2026-04-24 19:42 | 8.79470 | 167.96024 | 12412 ft | 352 kts | 78° |
| 2026-04-24 19:42 | 8.79445 | 167.98526 | 13250 ft | 360 kts | 103° |
| 2026-04-24 19:42 | 8.78320 | 168.00806 | 14033 ft | 370 kts | 128° |
| 2026-04-24 19:42 | 8.76315 | 168.02454 | 14809 ft | 380 kts | 148° |
| 2026-04-24 19:43 | 8.73866 | 168.03513 | 15593 ft | 387 kts | 162° |
| 2026-04-24 19:43 | 8.71200 | 168.03958 | 16385 ft | 392 kts | 176° |
| 2026-04-24 19:43 | 8.68431 | 168.03720 | 17152 ft | 398 kts | 191° |
| 2026-04-24 19:43 | 8.65816 | 168.02776 | 17896 ft | 403 kts | 207° |
| 2026-04-24 19:44 | 8.63530 | 168.01157 | 18595 ft | 408 kts | 223° |
| 2026-04-24 19:44 | 8.61739 | 167.98909 | 19312 ft | 411 kts | 238° |
| 2026-04-24 19:44 | 8.60261 | 167.96410 | 20000 ft | 415 kts | 239° |
| 2026-04-24 19:44 | 8.58791 | 167.93918 | 20708 ft | 417 kts | 240° |
| 2026-04-24 19:45 | 8.57308 | 167.91406 | 21392 ft | 419 kts | 240° |
| 2026-04-24 19:45 | 8.55820 | 167.88888 | 22042 ft | 421 kts | 240° |
| 2026-04-24 19:45 | 8.54301 | 167.86319 | 22672 ft | 424 kts | 240° |
| 2026-04-24 19:45 | 8.52792 | 167.83766 | 23254 ft | 428 kts | 240° |
| 2026-04-24 19:46 | 8.51260 | 167.81174 | 23810 ft | 432 kts | 240° |
| 2026-04-24 19:46 | 8.49697 | 167.78531 | 24388 ft | 435 kts | 240° |
| 2026-04-24 19:46 | 8.48145 | 167.75908 | 24962 ft | 437 kts | 240° |
| 2026-04-24 19:46 | 8.46591 | 167.73282 | 25496 ft | 439 kts | 240° |
| 2026-04-24 19:47 | 8.45001 | 167.70595 | 26008 ft | 442 kts | 241° |
| 2026-04-24 19:47 | 8.43392 | 167.67879 | 26490 ft | 446 kts | 241° |
| 2026-04-24 19:47 | 8.41796 | 167.65183 | 26944 ft | 449 kts | 241° |
| 2026-04-24 19:47 | 8.40165 | 167.62428 | 27398 ft | 452 kts | 241° |
| 2026-04-24 19:48 | 8.38524 | 167.59659 | 27832 ft | 455 kts | 241° |
| 2026-04-24 19:48 | 8.36876 | 167.56877 | 28244 ft | 458 kts | 241° |
| 2026-04-24 19:48 | 8.33541 | 167.51251 | 29077 ft | 462 kts | 241° |
| 2026-04-24 19:49 | 8.30201 | 167.45619 | 29985 ft | 463 kts | 240° |
| 2026-04-24 19:49 | 8.26909 | 167.40071 | 31089 ft | 458 kts | 239° |
| 2026-04-24 19:50 | 8.21985 | 167.31778 | 32597 ft | 452 kts | 238° |
| 2026-04-24 19:50 | 8.20363 | 167.29045 | 33052 ft | 451 kts | 238° |
| 2026-04-24 19:51 | 8.17140 | 167.23619 | 34044 ft | 448 kts | 238° |
| 2026-04-24 19:51 | 8.15529 | 167.20909 | 34508 ft | 446 kts | 239° |
| 2026-04-24 19:52 | 8.12351 | 167.15564 | 35427 ft | 442 kts | 239° |
| 2026-04-24 19:52 | 8.10764 | 167.12895 | 35799 ft | 442 kts | 239° |
| 2026-04-24 19:52 | 8.09185 | 167.10239 | 36141 ft | 441 kts | 239° |
| 2026-04-24 19:52 | 8.07598 | 167.07570 | 36476 ft | 441 kts | 239° |
| 2026-04-24 19:53 | 8.06021 | 167.04919 | 36804 ft | 440 kts | 239° |
| 2026-04-24 19:53 | 8.04440 | 167.02263 | 37106 ft | 440 kts | 239° |
| 2026-04-24 19:53 | 8.01292 | 166.96973 | 37691 ft | 439 kts | 239° |
| 2026-04-24 19:54 | 7.99722 | 166.94336 | 37908 ft | 440 kts | 239° |
| 2026-04-24 19:54 | 7.96543 | 166.88995 | 37903 ft | 449 kts | 239° |
| 2026-04-24 19:55 | 7.93841 | 166.84459 | 37905 ft | 456 kts | 239° |
| 2026-04-24 19:55 | 7.89994 | 166.78003 | 37904 ft | 463 kts | 239° |
| 2026-04-24 19:56 | 7.86665 | 166.72418 | 37904 ft | 465 kts | 239° |
| 2026-04-24 19:56 | 7.83334 | 166.66832 | 37903 ft | 464 kts | 239° |
| 2026-04-24 19:57 | 7.79995 | 166.61235 | 37901 ft | 463 kts | 239° |
| 2026-04-24 19:57 | 7.76675 | 166.55670 | 37903 ft | 462 kts | 239° |
| 2026-04-24 19:58 | 7.73360 | 166.50116 | 37892 ft | 462 kts | 239° |
| 2026-04-24 19:58 | 7.70043 | 166.44563 | 37883 ft | 463 kts | 239° |
| 2026-04-24 19:59 | 7.66725 | 166.39008 | 37886 ft | 463 kts | 239° |
| 2026-04-24 19:59 | 7.63388 | 166.33426 | 37886 ft | 463 kts | 239° |
| 2026-04-24 20:00 | 7.60068 | 166.27870 | 37886 ft | 462 kts | 239° |
| 2026-04-24 20:00 | 7.56744 | 166.22313 | 37887 ft | 462 kts | 239° |
| 2026-04-24 20:01 | 7.53431 | 166.16775 | 37886 ft | 461 kts | 239° |
| 2026-04-24 20:01 | 7.50114 | 166.11234 | 37886 ft | 462 kts | 239° |
| 2026-04-24 20:02 | 7.47352 | 166.06619 | 37886 ft | 462 kts | 238° |
| 2026-04-24 20:02 | 7.43477 | 166.00150 | 37886 ft | 463 kts | 239° |
| 2026-04-24 20:03 | 7.40149 | 165.94594 | 37886 ft | 463 kts | 238° |
| 2026-04-24 20:03 | 7.36815 | 165.89032 | 37886 ft | 463 kts | 238° |
| 2026-04-24 20:04 | 7.33469 | 165.83450 | 37890 ft | 463 kts | 238° |
| 2026-04-24 20:04 | 7.30150 | 165.77916 | 37894 ft | 463 kts | 238° |
| 2026-04-24 20:05 | 7.26798 | 165.72330 | 37898 ft | 463 kts | 238° |
| 2026-04-24 20:05 | 7.23450 | 165.66751 | 37901 ft | 464 kts | 238° |
| 2026-04-24 20:06 | 7.20111 | 165.61189 | 37903 ft | 465 kts | 238° |
| 2026-04-24 20:06 | 7.16770 | 165.55627 | 37907 ft | 465 kts | 238° |
| 2026-04-24 20:07 | 7.13973 | 165.50970 | 37906 ft | 466 kts | 238° |
| 2026-04-24 20:07 | 7.10047 | 165.44438 | 37905 ft | 466 kts | 238° |
| 2026-04-24 20:08 | 7.06696 | 165.38863 | 37906 ft | 466 kts | 238° |
| 2026-04-24 20:08 | 7.03331 | 165.33269 | 37907 ft | 467 kts | 238° |
| 2026-04-24 20:09 | 6.99958 | 165.27663 | 37907 ft | 467 kts | 238° |
| 2026-04-24 20:09 | 6.96372 | 165.22208 | 37906 ft | 467 kts | 234° |
| 2026-04-24 20:10 | 6.92584 | 165.16867 | 37903 ft | 467 kts | 234° |
| 2026-04-24 20:10 | 6.88784 | 165.11502 | 37906 ft | 467 kts | 234° |
| 2026-04-24 20:11 | 6.85006 | 165.06168 | 37904 ft | 468 kts | 234° |
| 2026-04-24 20:11 | 6.81191 | 165.00780 | 37904 ft | 468 kts | 234° |
| 2026-04-24 20:12 | 6.77366 | 164.95380 | 37901 ft | 468 kts | 234° |
| 2026-04-24 20:12 | 6.73587 | 164.90045 | 37900 ft | 468 kts | 234° |
| 2026-04-24 20:13 | 6.69809 | 164.84712 | 37889 ft | 467 kts | 234° |
| 2026-04-24 20:13 | 6.66026 | 164.79373 | 37884 ft | 468 kts | 234° |
| 2026-04-24 20:14 | 6.62235 | 164.74025 | 37886 ft | 468 kts | 234° |
| 2026-04-24 20:14 | 6.58451 | 164.68687 | 37885 ft | 468 kts | 234° |
| 2026-04-24 20:15 | 6.54672 | 164.63358 | 37885 ft | 468 kts | 234° |
| 2026-04-24 20:15 | 6.50885 | 164.58019 | 37885 ft | 467 kts | 234° |
| 2026-04-24 20:16 | 6.47110 | 164.52698 | 37886 ft | 467 kts | 234° |
| 2026-04-24 20:16 | 6.43307 | 164.47340 | 37885 ft | 467 kts | 234° |
| 2026-04-24 20:17 | 6.39525 | 164.42012 | 37886 ft | 467 kts | 234° |
| 2026-04-24 20:17 | 6.33813 | 164.33969 | 37886 ft | 467 kts | 233° |
| 2026-04-24 20:18 | 6.30039 | 164.28657 | 37886 ft | 467 kts | 233° |
| 2026-04-24 20:18 | 6.28145 | 164.25992 | 37782 ft | 469 kts | 233° |
| 2026-04-24 20:18 | 6.26250 | 164.23325 | 37150 ft | 467 kts | 234° |
| 2026-04-24 20:19 | 6.24355 | 164.20659 | 36398 ft | 463 kts | 234° |
| 2026-04-24 20:19 | 6.22483 | 164.18025 | 35656 ft | 459 kts | 234° |
| 2026-04-24 20:19 | 6.20620 | 164.15404 | 34985 ft | 454 kts | 234° |
| 2026-04-24 20:19 | 6.18808 | 164.12856 | 34551 ft | 446 kts | 234° |
| 2026-04-24 20:20 | 6.16972 | 164.10274 | 33834 ft | 447 kts | 234° |
| 2026-04-24 20:20 | 6.15166 | 164.07735 | 33141 ft | 449 kts | 234° |
| 2026-04-24 20:20 | 6.13328 | 164.05151 | 32458 ft | 451 kts | 234° |
| 2026-04-24 20:20 | 6.11512 | 164.02599 | 31793 ft | 453 kts | 234° |
| 2026-04-24 20:21 | 6.09647 | 163.99977 | 31189 ft | 455 kts | 233° |
| 2026-04-24 20:21 | 6.07818 | 163.97407 | 30578 ft | 458 kts | 233° |
| 2026-04-24 20:21 | 6.05959 | 163.94797 | 29968 ft | 461 kts | 233° |
| 2026-04-24 20:21 | 6.04074 | 163.92149 | 29349 ft | 464 kts | 233° |
| 2026-04-24 20:22 | 6.02210 | 163.89531 | 28737 ft | 465 kts | 233° |
| 2026-04-24 20:22 | 6.00317 | 163.86873 | 28122 ft | 464 kts | 233° |
| 2026-04-24 20:22 | 5.98427 | 163.84218 | 27499 ft | 461 kts | 233° |
| 2026-04-24 20:22 | 5.96582 | 163.81627 | 26898 ft | 458 kts | 233° |
| 2026-04-24 20:23 | 5.94726 | 163.79021 | 26290 ft | 455 kts | 233° |
| 2026-04-24 20:23 | 5.92885 | 163.76437 | 25690 ft | 452 kts | 233° |
| 2026-04-24 20:23 | 5.91054 | 163.73866 | 25096 ft | 448 kts | 234° |
| 2026-04-24 20:23 | 5.89259 | 163.71347 | 24499 ft | 445 kts | 234° |
| 2026-04-24 20:24 | 5.87446 | 163.68805 | 23904 ft | 442 kts | 234° |
| 2026-04-24 20:24 | 5.85663 | 163.66303 | 23321 ft | 438 kts | 234° |
| 2026-04-24 20:24 | 5.83900 | 163.63831 | 22745 ft | 435 kts | 234° |
| 2026-04-24 20:24 | 5.82149 | 163.61374 | 22165 ft | 432 kts | 234° |
| 2026-04-24 20:25 | 5.80389 | 163.58907 | 21590 ft | 430 kts | 234° |
| 2026-04-24 20:25 | 5.78652 | 163.56471 | 21017 ft | 427 kts | 234° |
| 2026-04-24 20:25 | 5.76943 | 163.54074 | 20458 ft | 425 kts | 234° |
| 2026-04-24 20:25 | 5.75226 | 163.51668 | 19892 ft | 422 kts | 234° |
| 2026-04-24 20:26 | 5.73509 | 163.49262 | 19328 ft | 419 kts | 234° |
| 2026-04-24 20:26 | 5.71838 | 163.46919 | 18778 ft | 416 kts | 234° |
| 2026-04-24 20:26 | 5.70123 | 163.44516 | 18215 ft | 414 kts | 234° |
| 2026-04-24 20:26 | 5.68458 | 163.42183 | 17671 ft | 411 kts | 234° |
| 2026-04-24 20:27 | 5.66791 | 163.39848 | 17126 ft | 408 kts | 234° |
| 2026-04-24 20:27 | 5.65141 | 163.37537 | 16586 ft | 406 kts | 234° |
| 2026-04-24 20:27 | 5.63694 | 163.35124 | 16052 ft | 403 kts | 243° |
| 2026-04-24 20:27 | 5.62502 | 163.32587 | 15510 ft | 400 kts | 244° |
| 2026-04-24 20:28 | 5.61311 | 163.30054 | 14983 ft | 398 kts | 244° |
| 2026-04-24 20:28 | 5.60125 | 163.27536 | 14454 ft | 397 kts | 244° |
| 2026-04-24 20:28 | 5.58957 | 163.25055 | 13932 ft | 393 kts | 244° |
| 2026-04-24 20:28 | 5.57790 | 163.22580 | 13414 ft | 385 kts | 244° |
| 2026-04-24 20:29 | 5.57033 | 163.20973 | 13076 ft | 380 kts | 244° |
| 2026-04-24 20:29 | 5.55544 | 163.17816 | 12412 ft | 371 kts | 244° |
| 2026-04-24 20:29 | 5.54446 | 163.15489 | 11918 ft | 363 kts | 244° |
| 2026-04-24 20:29 | 5.53382 | 163.13235 | 11418 ft | 350 kts | 244° |
| 2026-04-24 20:30 | 5.52348 | 163.11043 | 10983 ft | 335 kts | 244° |
| 2026-04-24 20:30 | 5.51379 | 163.08990 | 10553 ft | 324 kts | 243° |
| 2026-04-24 20:30 | 5.50418 | 163.06955 | 10130 ft | 316 kts | 243° |
| 2026-04-24 20:30 | 5.49479 | 163.04971 | 9713 ft | 314 kts | 243° |
| 2026-04-24 20:31 | 5.48547 | 163.02998 | 9298 ft | 313 kts | 243° |
| 2026-04-24 20:31 | 5.47622 | 163.01044 | 8885 ft | 311 kts | 243° |
| 2026-04-24 20:31 | 5.46683 | 162.99059 | 8500 ft | 311 kts | 243° |
| 2026-04-24 20:31 | 5.45748 | 162.97081 | 8065 ft | 313 kts | 243° |
| 2026-04-24 20:32 | 5.44821 | 162.95122 | 7646 ft | 311 kts | 243° |
| 2026-04-24 20:32 | 5.43887 | 162.93149 | 7223 ft | 308 kts | 243° |
| 2026-04-24 20:32 | 5.42980 | 162.91231 | 6823 ft | 304 kts | 243° |
| 2026-04-24 20:32 | 5.42074 | 162.89314 | 6376 ft | 296 kts | 243° |
| 2026-04-24 20:33 | 5.41220 | 162.87509 | 6042 ft | 284 kts | 243° |
| 2026-04-24 20:33 | 5.40377 | 162.85727 | 5672 ft | 273 kts | 243° |
| 2026-04-24 20:33 | 5.39598 | 162.84078 | 5365 ft | 254 kts | 243° |
| 2026-04-24 20:33 | 5.38848 | 162.82495 | 5142 ft | 254 kts | 243° |
| 2026-04-24 20:34 | 5.38095 | 162.80905 | 4715 ft | 249 kts | 243° |
| 2026-04-24 20:34 | 5.37352 | 162.79335 | 4426 ft | 248 kts | 243° |
| 2026-04-24 20:34 | 5.36528 | 162.77829 | 4079 ft | 237 kts | 229° |
| 2026-04-24 20:34 | 5.35353 | 162.76877 | 3995 ft | 204 kts | 202° |
| 2026-04-24 20:35 | 5.34028 | 162.76483 | 3558 ft | 199 kts | 181° |
| 2026-04-24 20:35 | 5.32679 | 162.76570 | 3047 ft | 191 kts | 161° |
| 2026-04-24 20:35 | 5.31485 | 162.77026 | 2769 ft | 173 kts | 149° |
| 2026-04-24 20:35 | 5.30374 | 162.77531 | 2532 ft | 175 kts | 149° |
| 2026-04-24 20:36 | 5.29265 | 162.78041 | 2250 ft | 171 kts | 146° |
| 2026-04-24 20:36 | 5.28476 | 162.78859 | 1978 ft | 158 kts | 109° |
| 2026-04-24 20:36 | 5.28399 | 162.79898 | 1964 ft | 148 kts | 78° |
| 2026-04-24 20:36 | 5.28759 | 162.80870 | 1963 ft | 149 kts | 68° |
| 2026-04-24 20:37 | 5.29194 | 162.81810 | 1942 ft | 148 kts | 67° |
| 2026-04-24 20:37 | 5.29628 | 162.82765 | 1925 ft | 148 kts | 68° |
| 2026-04-24 20:37 | 5.30053 | 162.83704 | 1944 ft | 149 kts | 68° |
| 2026-04-24 20:37 | 5.30489 | 162.84666 | 1952 ft | 149 kts | 68° |
| 2026-04-24 20:38 | 5.30917 | 162.85612 | 1960 ft | 150 kts | 68° |
| 2026-04-24 20:38 | 5.31360 | 162.86594 | 1782 ft | 152 kts | 68° |
| 2026-04-24 20:38 | 5.31790 | 162.87544 | 1634 ft | 146 kts | 68° |
| 2026-04-24 20:38 | 5.32192 | 162.88431 | 1429 ft | 136 kts | 67° |
| 2026-04-24 20:39 | 5.32575 | 162.89279 | 1257 ft | 131 kts | 67° |
| 2026-04-24 20:39 | 5.32951 | 162.90112 | 1081 ft | 128 kts | 67° |
| 2026-04-24 20:39 | 5.33284 | 162.90848 | 935 ft | 126 kts | 67° |
| 2026-04-24 20:39 | 5.33631 | 162.91623 | 768 ft | 120 kts | 67° |
| 2026-04-24 20:40 | 5.33976 | 162.92380 | 606 ft | 117 kts | 67° |
| 2026-04-24 20:40 | 5.34308 | 162.93108 | 456 ft | 115 kts | 67° |
| 2026-04-24 20:40 | 5.34620 | 162.93848 | 274 ft | 113 kts | 72° |
| 2026-04-24 20:40 | 5.34952 | 162.94560 | 138 ft | 112 kts | 64° |
| 2026-04-24 20:41 | 5.35313 | 162.95254 | 50 ft | 115 kts | 56° |
| 2026-04-24 20:41 | 5.35705 | 162.95844 | 20 ft | 66 kts | 56° |
| 2026-04-24 20:41 | 5.35814 | 162.96007 | 20 ft | 8 kts | 58° |
| 2026-04-24 20:41 | 5.35832 | 162.96031 | 19 ft | 4 kts | 263° |
| 2026-04-24 20:42 | 5.35801 | 162.95989 | 20 ft | 11 kts | 233° |
| 2026-04-24 20:42 | 5.35739 | 162.95901 | 20 ft | 21 kts | 234° |
| 2026-04-24 20:42 | 5.35630 | 162.95746 | 20 ft | 29 kts | 238° |
| 2026-04-24 20:42 | 5.35530 | 162.95593 | 20 ft | 18 kts | 239° |
| 2026-04-24 20:43 | 5.35464 | 162.95519 | 20 ft | 13 kts | 181° |
| 2026-04-24 20:43 | 5.35380 | 162.95563 | 20 ft | 11 kts | 172° |
| 2026-04-24 20:43 | 5.35335 | 162.95532 | 20 ft | 4 kts | 199° |
| 2026-04-24 20:43 | 5.35299 | 162.95540 | 20 ft | 7 kts | 113° |
| 2026-04-24 20:44 | 5.35304 | 162.95564 | 20 ft | 0 kts | 52° |
| 2026-04-24 21:08 | 5.35347 | 162.95572 | 20 ft | 10 kts | 351° |
| 2026-04-24 21:08 | 5.35421 | 162.95541 | 20 ft | 12 kts | 323° |
| 2026-04-24 21:08 | 5.35501 | 162.95544 | 20 ft | 14 kts | 54° |
| 2026-04-24 21:08 | 5.35559 | 162.95634 | 20 ft | 16 kts | 58° |
| 2026-04-24 21:09 | 5.35617 | 162.95731 | 20 ft | 10 kts | 24° |
| 2026-04-24 21:09 | 5.35609 | 162.95691 | 20 ft | 0 kts | 236° |
| 2026-04-24 21:09 | 5.35601 | 162.95679 | 20 ft | 8 kts | 236° |
| 2026-04-24 21:09 | 5.35536 | 162.95584 | 20 ft | 20 kts | 234° |
| 2026-04-24 21:10 | 5.35441 | 162.95459 | 20 ft | 24 kts | 241° |
| 2026-04-24 21:10 | 5.35348 | 162.95303 | 20 ft | 27 kts | 233° |
| 2026-04-24 21:10 | 5.35261 | 162.95235 | 20 ft | 10 kts | 220° |
| 2026-04-24 21:10 | 5.35264 | 162.95200 | 20 ft | 7 kts | 48° |
| 2026-04-24 21:11 | 5.35274 | 162.95213 | 20 ft | 0 kts | 56° |